Time;durP1;ratioP1;P1;durP2;ratioP2;P2;SDS_P1;SDS_P2;PMS_P1;PMS_P2;Temp;Humidity;BMP_temperature;BMP_pressure;BME280_temperature;BME280_humidity;BME280_pressure;Samples;Min_cycle;Max_cycle;Signal;HPM_P1;HPM_P2
2022/03/13 00:01:02;;;;;;;14.32;6.32;;;-0.50;99.90;;;;;;5290781;28;20374;-75
2022/03/13 00:03:34;;;;;;;14.10;6.10;;;-0.60;99.90;;;;;;5292743;28;20046;-76
2022/03/13 00:06:06;;;;;;;13.80;6.57;;;-0.50;99.90;;;;;;5293976;28;20019;-75
2022/03/13 00:08:38;;;;;;;12.80;6.40;;;-0.50;99.90;;;;;;5292588;28;20032;-75
2022/03/13 00:11:17;;;;;;;13.18;6.85;;;-0.70;99.90;;;;;;5293907;28;20020;-75
2022/03/13 00:13:51;;;;;;;12.70;6.95;;;-0.60;99.90;;;;;;5292645;28;20030;-75
2022/03/13 00:16:23;;;;;;;14.32;6.80;;;-0.50;99.90;;;;;;5292417;28;20019;-75
2022/03/13 00:18:55;;;;;;;18.15;7.97;;;-0.40;99.90;;;;;;5292122;28;20071;-75
2022/03/13 00:21:26;;;;;;;15.60;7.40;;;-0.50;99.90;;;;;;5293484;28;20077;-75
2022/03/13 00:23:57;;;;;;;14.18;5.95;;;-0.40;99.90;;;;;;5293662;28;20031;-75
2022/03/13 00:26:28;;;;;;;16.02;6.50;;;-0.40;99.90;;;;;;5293516;28;20032;-75
2022/03/13 00:28:58;;;;;;;13.45;7.30;;;-0.50;99.90;;;;;;5293473;28;20031;-75
2022/03/13 00:31:29;;;;;;;16.27;7.43;;;-0.50;99.90;;;;;;5293429;27;20016;-75
2022/03/13 00:34:00;;;;;;;12.95;6.20;;;-0.50;99.90;;;;;;5293121;28;20428;-75
2022/03/13 00:36:31;;;;;;;12.15;6.55;;;-0.50;99.90;;;;;;5293328;28;20028;-75
2022/03/13 00:39:02;;;;;;;13.95;6.78;;;-0.60;99.90;;;;;;5293222;28;20096;-75
2022/03/13 00:41:33;;;;;;;17.50;6.72;;;-0.60;99.90;;;;;;5293082;28;20031;-75
2022/03/13 00:44:05;;;;;;;13.18;6.72;;;-0.50;99.90;;;;;;5293147;28;20016;-75
2022/03/13 00:46:36;;;;;;;14.82;6.10;;;-0.50;99.90;;;;;;5293078;28;20470;-75
2022/03/13 00:49:08;;;;;;;12.07;6.53;;;-0.50;99.90;;;;;;5292619;28;20051;-75
2022/03/13 00:51:38;;;;;;;12.73;5.55;;;-0.40;99.90;;;;;;5291784;28;20293;-75
2022/03/13 00:54:09;;;;;;;11.18;6.10;;;-0.30;99.90;;;;;;5291735;28;20027;-75
2022/03/13 00:56:40;;;;;;;10.63;5.65;;;-0.30;99.90;;;;;;5292959;28;20048;-75
2022/03/13 00:59:11;;;;;;;13.82;6.57;;;-0.40;99.90;;;;;;5291549;28;20114;-75
2022/03/13 01:01:42;;;;;;;16.05;5.90;;;-0.30;99.90;;;;;;5291499;28;20440;-75
2022/03/13 01:04:13;;;;;;;11.02;5.28;;;-0.40;99.90;;;;;;5292887;28;20020;-76
2022/03/13 01:06:46;;;;;;;11.50;5.82;;;-0.40;99.90;;;;;;5292798;28;20026;-75
2022/03/13 01:09:17;;;;;;;9.50;5.53;;;-0.40;99.90;;;;;;5292664;28;20420;-75
2022/03/13 01:11:47;;;;;;;13.75;6.38;;;-0.50;99.90;;;;;;5292156;28;20027;-75
2022/03/13 01:14:21;;;;;;;12.60;6.13;;;-0.40;99.90;;;;;;5292649;28;20081;-75
2022/03/13 01:17:05;;;;;;;9.98;5.07;;;-0.50;99.90;;;;;;5292566;28;20066;-75
2022/03/13 01:19:37;;;;;;;9.77;5.50;;;-0.50;99.90;;;;;;5292087;28;20040;-75
2022/03/13 01:22:08;;;;;;;9.35;5.53;;;-0.50;99.90;;;;;;5292411;28;20107;-75
2022/03/13 01:24:44;;;;;;;8.10;4.68;;;-0.40;99.90;;;;;;5292417;28;20114;-75
2022/03/13 01:27:16;;;;;;;11.73;5.20;;;-0.40;99.90;;;;;;5291036;28;20026;-76
2022/03/13 01:29:47;;;;;;;6.85;4.85;;;-0.30;99.90;;;;;;5292288;28;20379;-75
2022/03/13 01:32:18;;;;;;;9.63;4.82;;;-0.30;99.90;;;;;;5292221;28;20030;-75
2022/03/13 01:34:51;;;;;;;9.55;4.75;;;-0.20;99.90;;;;;;5292290;28;20024;-75
2022/03/13 01:37:31;;;;;;;11.07;4.65;;;-0.20;99.90;;;;;;5290757;28;20024;-75
2022/03/13 01:40:08;;;;;;;7.82;4.32;;;-0.30;99.90;;;;;;5291865;28;20031;-75
2022/03/13 01:42:40;;;;;;;9.60;4.55;;;-0.20;99.90;;;;;;5290706;28;20035;-75
2022/03/13 01:45:14;;;;;;;9.13;4.53;;;-0.30;99.90;;;;;;5292018;28;20024;-76
2022/03/13 01:47:46;;;;;;;11.73;5.18;;;-0.30;99.90;;;;;;5290436;28;20027;-75
2022/03/13 01:50:17;;;;;;;10.32;4.88;;;-0.40;99.90;;;;;;5291592;28;20101;-75
2022/03/13 01:52:49;;;;;;;11.82;5.32;;;-0.40;99.90;;;;;;5291725;28;20030;-75
2022/03/13 01:55:20;;;;;;;7.20;4.28;;;-0.40;99.90;;;;;;5290424;28;20534;-76
2022/03/13 01:57:51;;;;;;;8.27;4.43;;;-0.40;99.90;;;;;;5291643;28;20491;-75
2022/03/13 02:00:22;;;;;;;12.73;5.43;;;-0.30;99.90;;;;;;5291518;28;20039;-75
2022/03/13 02:02:53;;;;;;;7.95;4.65;;;-0.40;99.90;;;;;;5291579;28;20022;-75
2022/03/13 02:05:35;;;;;;;9.35;5.28;;;-0.30;99.90;;;;;;5291567;28;20028;-75
2022/03/13 02:08:26;;;;;;;10.25;4.68;;;-0.40;99.90;;;;;;5291421;27;20476;-75
2022/03/13 02:10:59;;;;;;;6.43;4.07;;;-0.50;99.90;;;;;;5289875;28;20032;-75
2022/03/13 02:13:33;;;;;;;8.85;4.80;;;-0.60;99.90;;;;;;5291426;28;20023;-75
2022/03/13 02:16:06;;;;;;;9.98;4.95;;;-0.60;99.90;;;;;;5290067;28;20055;-75
2022/03/13 02:18:39;;;;;;;9.70;4.45;;;-0.70;99.90;;;;;;5290949;28;20123;-75
2022/03/13 02:21:11;;;;;;;7.32;4.30;;;-0.60;99.90;;;;;;5291070;28;20020;-75
2022/03/13 02:23:42;;;;;;;11.68;5.28;;;-0.60;99.90;;;;;;5288892;28;20032;-75
2022/03/13 02:26:13;;;;;;;9.30;5.30;;;-0.70;99.90;;;;;;5291066;28;20023;-75
2022/03/13 02:28:54;;;;;;;13.68;5.30;;;-0.70;99.90;;;;;;5289737;28;20547;-75
2022/03/13 02:31:30;;;;;;;;;;;-0.60;99.90;;;;;;5291512;28;20020;-75
2022/03/13 02:34:01;;;;;;;12.20;5.68;;;-0.70;99.90;;;;;;5291073;28;19915;-75
2022/03/13 02:36:32;;;;;;;11.40;4.78;;;-0.70;99.90;;;;;;5290985;28;20104;-75
2022/03/13 02:39:04;;;;;;;10.88;5.80;;;-0.70;99.90;;;;;;5290792;28;20063;-75
2022/03/13 02:41:37;;;;;;;12.32;5.78;;;-0.70;99.90;;;;;;5290646;28;20027;-75
2022/03/13 02:44:10;;;;;;;12.65;6.07;;;-0.50;99.90;;;;;;5290825;28;20157;-75
2022/03/13 02:46:57;;;;;;;15.20;5.88;;;-0.60;99.90;;;;;;5289512;28;20058;-75
2022/03/13 02:49:30;;;;;;;13.52;5.82;;;-0.60;99.90;;;;;;5290321;28;20395;-75
2022/03/13 02:52:04;;;;;;;13.52;5.90;;;-0.40;99.90;;;;;;5290676;28;20024;-75
2022/03/13 02:54:35;;;;;;;12.77;6.43;;;-0.50;99.90;;;;;;5290562;28;20035;-75
2022/03/13 02:57:07;;;;;;;9.95;5.07;;;-0.40;99.90;;;;;;5290572;28;20416;-75
2022/03/13 02:59:38;;;;;;;9.98;5.40;;;-0.60;99.90;;;;;;5290289;28;20071;-75
2022/03/13 03:02:08;;;;;;;12.18;5.30;;;-0.80;99.90;;;;;;5290372;28;20092;-75
2022/03/13 03:04:43;;;;;;;11.93;6.30;;;-1.60;99.90;;;;;;5290460;28;20550;-75
2022/03/13 03:07:14;;;;;;;17.35;6.28;;;-1.30;99.90;;;;;;5290390;28;20031;-75
2022/03/13 03:09:45;;;;;;;8.55;5.05;;;-1.70;99.90;;;;;;5290257;28;20020;-75
2022/03/13 03:12:15;;;;;;;14.15;7.47;;;-2.10;99.90;;;;;;5288939;28;20024;-75
2022/03/13 03:14:46;;;;;;;9.63;5.53;;;-2.10;99.90;;;;;;5288962;28;20030;-75
2022/03/13 03:17:17;;;;;;;11.60;6.32;;;-2.20;99.90;;;;;;5290217;28;20509;-75
2022/03/13 03:19:48;;;;;;;10.13;5.55;;;-2.30;99.90;;;;;;5289843;28;20043;-75
2022/03/13 03:22:19;;;;;;;13.43;5.95;;;-2.20;99.90;;;;;;5290062;28;20050;-75
2022/03/13 03:24:50;;;;;;;12.05;6.00;;;-2.50;99.90;;;;;;5290092;28;20024;-75
2022/03/13 03:27:20;;;;;;;11.25;5.53;;;-2.40;99.90;;;;;;5288793;28;20030;-75
2022/03/13 03:29:51;;;;;;;11.40;6.00;;;-2.40;99.90;;;;;;5289994;28;20086;-74
2022/03/13 03:32:22;;;;;;;9.75;5.78;;;-2.50;99.90;;;;;;5290014;28;20054;-75
2022/03/13 03:34:53;;;;;;;11.63;6.15;;;-2.40;99.90;;;;;;5288493;28;20584;-75
2022/03/13 03:37:25;;;;;;;17.92;8.00;;;-2.60;99.90;;;;;;5288619;28;20031;-75
2022/03/13 03:39:56;;;;;;;11.90;5.97;;;-2.60;99.90;;;;;;5289690;28;20027;-75
2022/03/13 03:42:26;;;;;;;14.68;8.77;;;-2.60;99.90;;;;;;5289872;28;20024;-74
2022/03/13 03:44:57;;;;;;;12.48;7.18;;;-2.60;99.90;;;;;;5289866;28;20016;-75
2022/03/13 03:47:28;;;;;;;15.38;8.32;;;-2.50;99.90;;;;;;5289664;28;20031;-75
2022/03/13 03:49:59;;;;;;;8.50;4.70;;;-2.30;99.90;;;;;;5288366;28;20055;-75
2022/03/13 03:52:30;;;;;;;10.95;5.20;;;-2.40;99.90;;;;;;5289856;28;20474;-75
2022/03/13 03:55:01;;;;;;;9.55;5.63;;;-2.40;99.90;;;;;;5289800;28;20016;-75
2022/03/13 03:57:32;;;;;;;10.70;4.72;;;-2.60;99.90;;;;;;5288574;28;20084;-74
2022/03/13 04:00:05;;;;;;;8.18;4.43;;;-2.00;99.90;;;;;;5289409;28;20043;-74
2022/03/13 04:02:37;;;;;;;9.02;4.53;;;-1.70;99.90;;;;;;5289716;28;20374;-74
2022/03/13 04:05:09;;;;;;;7.28;4.25;;;-1.60;99.90;;;;;;5289598;28;20367;-74
2022/03/13 04:07:40;;;;;;;12.10;4.82;;;-1.50;99.90;;;;;;5289780;28;20024;-74
2022/03/13 04:10:10;;;;;;;8.15;4.53;;;-1.50;99.90;;;;;;5289546;28;20475;-75
2022/03/13 04:12:41;;;;;;;7.82;4.20;;;-1.30;99.90;;;;;;5289620;28;20102;-75
2022/03/13 04:15:12;;;;;;;7.38;4.10;;;-1.30;99.90;;;;;;5289513;28;20027;-75
2022/03/13 04:17:43;;;;;;;8.63;4.50;;;-1.20;99.90;;;;;;5289378;28;20357;-74
2022/03/13 04:20:14;;;;;;;13.23;5.97;;;-1.40;99.90;;;;;;5288009;28;20063;-75
2022/03/13 04:22:44;;;;;;;9.23;5.93;;;-1.70;99.90;;;;;;5289523;28;20486;-75
2022/03/13 04:25:16;;;;;;;9.65;6.05;;;-1.80;99.90;;;;;;5289477;28;20084;-75
2022/03/13 04:27:47;;;;;;;44.63;19.45;;;-1.80;99.90;;;;;;5288125;28;20028;-75
2022/03/13 04:30:18;;;;;;;30.70;15.32;;;-2.00;99.90;;;;;;5289468;28;20016;-74
2022/03/13 04:32:49;;;;;;;10.90;5.97;;;-1.90;99.90;;;;;;5289527;28;20081;-75
2022/03/13 04:35:20;;;;;;;11.63;6.20;;;-1.80;99.90;;;;;;5289388;28;20371;-74
2022/03/13 04:37:51;;;;;;;11.65;5.93;;;-2.10;99.90;;;;;;5289334;28;20038;-75
2022/03/13 04:40:22;;;;;;;11.20;5.47;;;-2.00;99.90;;;;;;5287980;28;20031;-74
2022/03/13 04:42:53;;;;;;;10.38;6.50;;;-2.00;99.90;;;;;;5289476;28;20355;-75
2022/03/13 04:45:25;;;;;;;20.85;10.63;;;-2.00;99.90;;;;;;5289440;28;20378;-75
2022/03/13 04:47:55;;;;;;;16.70;9.52;;;-1.80;99.90;;;;;;5292689;28;20032;-74
2022/03/13 04:50:26;;;;;;;18.02;8.85;;;-1.90;99.90;;;;;;5293157;28;20085;-74
2022/03/13 04:52:57;;;;;;;12.82;7.22;;;-1.90;99.90;;;;;;5293098;28;20102;-74
2022/03/13 04:55:28;;;;;;;18.85;8.32;;;-2.00;99.90;;;;;;5292704;28;20104;-74
2022/03/13 04:57:59;;;;;;;10.85;6.20;;;-1.90;99.90;;;;;;5292754;28;20024;-74
2022/03/13 05:00:30;;;;;;;12.85;5.60;;;-1.90;99.90;;;;;;5292411;28;20100;-74
2022/03/13 05:03:00;;;;;;;7.50;4.60;;;-1.90;99.90;;;;;;5292810;28;20091;-74
2022/03/13 05:05:34;;;;;;;10.35;5.97;;;-2.00;99.90;;;;;;5292767;28;20126;-75
2022/03/13 05:08:07;;;;;;;48.10;32.35;;;-1.80;99.90;;;;;;5291400;28;20030;-75
2022/03/13 05:10:39;;;;;;;12.02;5.93;;;-1.80;99.90;;;;;;5292676;28;20121;-74
2022/03/13 05:13:11;;;;;;;10.32;5.78;;;-1.80;99.90;;;;;;5292272;28;20077;-74
2022/03/13 05:15:44;;;;;;;23.23;12.63;;;-1.80;99.90;;;;;;5292586;28;20037;-74
2022/03/13 05:18:15;;;;;;;14.15;7.82;;;-1.60;99.90;;;;;;5291972;28;20511;-74
2022/03/13 05:20:46;;;;;;;15.23;7.82;;;-1.80;99.90;;;;;;5291045;28;20072;-75
2022/03/13 05:23:17;;;;;;;12.63;7.25;;;-1.70;99.90;;;;;;5291111;28;20024;-74
2022/03/13 05:25:48;;;;;;;14.50;7.82;;;-1.50;99.90;;;;;;5291186;28;20526;-74
2022/03/13 05:28:18;;;;;;;11.18;6.25;;;-1.40;99.90;;;;;;5292303;28;20012;-74
2022/03/13 05:30:49;;;;;;;13.52;6.15;;;-1.70;99.90;;;;;;5292276;28;20020;-74
2022/03/13 05:33:20;;;;;;;10.05;6.07;;;-1.40;99.90;;;;;;5290933;28;20032;-74
2022/03/13 05:35:51;;;;;;;11.07;6.45;;;-1.40;99.90;;;;;;5292138;28;20019;-75
2022/03/13 05:38:22;;;;;;;13.32;7.95;;;-1.10;99.90;;;;;;5291929;28;20028;-74
2022/03/13 05:40:53;;;;;;;12.23;6.80;;;-0.40;99.90;;;;;;5292005;28;20494;-74
2022/03/13 05:43:25;;;;;;;12.80;6.20;;;-0.20;99.90;;;;;;5290705;28;20020;-75
2022/03/13 05:45:55;;;;;;;14.45;7.95;;;-0.40;99.90;;;;;;5291987;28;20031;-75
2022/03/13 05:48:30;;;;;;;13.25;6.43;;;0.00;99.90;;;;;;5290158;28;20087;-75
2022/03/13 05:51:01;;;;;;;16.55;7.90;;;0.60;99.90;;;;;;5290879;28;20475;-74
2022/03/13 05:53:32;;;;;;;12.65;6.85;;;0.50;99.90;;;;;;5291726;28;20015;-74
2022/03/13 05:56:03;;;;;;;13.25;7.18;;;0.40;99.90;;;;;;5291799;28;20028;-74
2022/03/13 05:58:34;;;;;;;12.02;7.13;;;1.00;99.90;;;;;;5291549;28;20480;-75
2022/03/13 06:01:05;;;;;;;18.15;10.63;;;1.40;99.90;;;;;;5290263;28;20173;-75
2022/03/13 06:03:37;;;;;;;24.63;10.85;;;1.80;99.90;;;;;;5291684;28;20019;-75
2022/03/13 06:06:08;;;;;;;16.65;9.35;;;3.00;99.90;;;;;;5291642;28;20020;-76
2022/03/13 06:08:39;;;;;;;18.95;10.05;;;2.90;99.90;;;;;;5291549;28;20157;-75
2022/03/13 06:11:10;;;;;;;16.80;9.25;;;2.80;99.90;;;;;;5289947;28;20518;-75
2022/03/13 06:13:40;;;;;;;13.27;7.43;;;2.50;99.90;;;;;;5291216;28;20034;-75
2022/03/13 06:16:11;;;;;;;15.23;8.27;;;2.40;99.90;;;;;;5291364;28;20011;-76
2022/03/13 06:18:43;;;;;;;13.73;7.78;;;2.20;99.90;;;;;;5290996;28;20036;-75
2022/03/13 06:21:14;;;;;;;16.75;9.93;;;1.90;99.90;;;;;;5291087;28;20027;-75
2022/03/13 06:23:45;;;;;;;16.33;8.85;;;1.80;99.90;;;;;;5291279;28;20030;-74
2022/03/13 06:26:15;;;;;;;19.08;10.63;;;2.40;99.90;;;;;;5291086;28;20024;-75
2022/03/13 06:28:46;;;;;;;16.60;8.82;;;2.10;99.90;;;;;;5290997;28;20042;-75
2022/03/13 06:31:17;;;;;;;12.23;7.35;;;2.30;99.90;;;;;;5289762;28;20547;-75
2022/03/13 06:33:48;;;;;;;13.38;8.30;;;2.40;99.90;;;;;;5290962;28;20020;-75
2022/03/13 06:36:19;;;;;;;15.07;7.85;;;2.20;99.90;;;;;;5290956;28;20474;-74
2022/03/13 06:38:50;;;;;;;14.50;8.40;;;2.00;99.90;;;;;;5290929;28;20051;-74
2022/03/13 06:41:21;;;;;;;14.35;8.27;;;1.80;99.90;;;;;;5290662;28;20072;-74
2022/03/13 06:43:53;;;;;;;12.00;7.78;;;1.60;99.90;;;;;;5290849;28;20028;-74
2022/03/13 06:46:23;;;;;;;13.48;8.02;;;1.60;99.90;;;;;;5290768;28;20028;-75
2022/03/13 06:48:54;;;;;;;18.45;7.82;;;1.60;99.90;;;;;;5290340;28;20423;-75
2022/03/13 06:51:25;;;;;;;14.07;8.02;;;1.90;99.90;;;;;;5289317;28;20114;-75
2022/03/13 06:53:56;;;;;;;12.90;7.65;;;2.40;99.90;;;;;;5289371;28;20081;-75
2022/03/13 06:56:29;;;;;;;15.10;7.80;;;2.20;99.90;;;;;;5289252;28;20028;-75
2022/03/13 06:59:03;;;;;;;13.45;8.52;;;2.70;99.90;;;;;;5289127;28;20062;-75
2022/03/13 07:01:36;;;;;;;14.00;7.85;;;2.40;99.90;;;;;;5289083;28;20059;-75
2022/03/13 07:04:07;;;;;;;13.55;7.60;;;2.40;99.90;;;;;;5289180;28;20092;-75
2022/03/13 07:06:38;;;;;;;13.18;8.15;;;2.40;99.90;;;;;;5290421;28;20019;-75
2022/03/13 07:09:09;;;;;;;17.38;8.98;;;2.60;99.90;;;;;;5289982;28;20023;-75
2022/03/13 07:11:46;;;;;;;13.18;7.18;;;2.80;99.90;;;;;;5289088;28;20391;-75
2022/03/13 07:14:20;;;;;;;13.48;7.88;;;2.90;99.90;;;;;;5290355;28;20024;-75
2022/03/13 07:16:52;;;;;;;11.02;6.80;;;3.00;99.90;;;;;;5290213;28;20034;-75
2022/03/13 07:19:22;;;;;;;11.60;6.90;;;3.40;99.90;;;;;;5290000;28;20043;-76
2022/03/13 07:21:53;;;;;;;8.57;5.78;;;3.30;99.90;;;;;;5289739;28;20027;-76
2022/03/13 07:24:24;;;;;;;10.43;6.45;;;3.40;99.90;;;;;;5288900;28;20030;-75
2022/03/13 07:26:55;;;;;;;12.48;7.60;;;3.80;99.90;;;;;;5290235;28;20043;-75
2022/03/13 07:29:26;;;;;;;12.95;7.47;;;3.70;99.90;;;;;;5290136;28;20023;-77
2022/03/13 07:31:57;;;;;;;11.30;6.65;;;3.50;99.90;;;;;;5290091;28;20023;-75
2022/03/13 07:34:28;;;;;;;10.88;5.90;;;2.90;99.90;;;;;;5288694;28;20059;-76
2022/03/13 07:36:59;;;;;;;12.48;6.47;;;3.10;99.90;;;;;;5290001;28;20020;-76
2022/03/13 07:39:29;;;;;;;13.27;7.18;;;3.70;99.90;;;;;;5288387;28;20118;-76
2022/03/13 07:42:00;;;;;;;14.80;7.68;;;4.20;99.90;;;;;;5289947;28;20024;-75
2022/03/13 07:44:31;;;;;;;13.25;7.18;;;4.10;99.90;;;;;;5289959;28;20020;-75
2022/03/13 07:47:02;;;;;;;12.45;7.95;;;4.30;99.90;;;;;;5289917;28;20024;-76
2022/03/13 07:49:33;;;;;;;12.75;7.25;;;5.00;99.90;;;;;;5289441;28;20066;-75
2022/03/13 07:52:04;;;;;;;9.88;6.45;;;4.40;99.90;;;;;;5289806;28;20031;-76
2022/03/13 07:54:35;;;;;;;12.40;7.00;;;4.60;99.90;;;;;;5289765;28;20595;-76
2022/03/13 07:57:06;;;;;;;14.50;6.75;;;4.80;99.90;;;;;;5289780;28;20027;-75
2022/03/13 07:59:37;;;;;;;11.57;7.03;;;4.90;99.90;;;;;;5289447;28;20039;-75
2022/03/13 08:02:08;;;;;;;10.25;6.15;;;4.70;99.90;;;;;;5289666;28;20016;-75
2022/03/13 08:04:38;;;;;;;8.93;5.43;;;4.20;99.90;;;;;;5289568;28;20016;-75
2022/03/13 08:07:09;;;;;;;8.98;5.78;;;4.90;99.90;;;;;;5288356;28;20016;-75
2022/03/13 08:09:40;;;;;;;9.20;5.60;;;4.50;99.90;;;;;;5289561;28;20059;-75
2022/03/13 08:12:12;;;;;;;10.00;5.68;;;4.90;99.90;;;;;;5288359;28;20482;-75
2022/03/13 08:14:43;;;;;;;10.68;6.28;;;5.20;99.10;;;;;;5289664;28;20019;-75
2022/03/13 08:17:15;;;;;;;10.65;6.03;;;5.40;95.10;;;;;;5288211;28;20020;-75
2022/03/13 08:19:46;;;;;;;10.05;5.72;;;4.60;91.40;;;;;;5287912;28;20040;-75
2022/03/13 08:22:17;;;;;;;11.23;6.00;;;5.00;96.70;;;;;;5292773;28;20055;-76
2022/03/13 08:24:48;;;;;;;7.53;5.10;;;5.40;92.40;;;;;;5293629;28;20058;-75
2022/03/13 08:27:19;;;;;;;9.25;5.40;;;5.00;95.80;;;;;;5292323;28;20086;-75
2022/03/13 08:29:50;;;;;;;11.73;7.82;;;5.30;93.30;;;;;;5293512;28;20376;-75
2022/03/13 08:32:21;;;;;;;10.65;6.25;;;5.60;90.30;;;;;;5293474;28;20359;-75
2022/03/13 08:34:52;;;;;;;12.38;6.47;;;5.70;89.00;;;;;;5293435;27;20027;-75
2022/03/13 08:37:23;;;;;;;9.15;6.00;;;5.40;83.80;;;;;;5293401;28;20020;-75
2022/03/13 08:39:54;;;;;;;10.23;6.75;;;6.40;86.40;;;;;;5293253;28;20612;-75
2022/03/13 08:42:25;;;;;;;10.88;5.97;;;5.80;83.30;;;;;;5293313;28;20020;-76
2022/03/13 08:44:56;;;;;;;10.93;6.13;;;6.00;85.90;;;;;;5293219;28;20023;-76
2022/03/13 08:47:27;;;;;;;10.85;6.20;;;5.50;79.60;;;;;;5292923;28;20584;-77
2022/03/13 08:49:58;;;;;;;8.90;5.68;;;6.00;78.00;;;;;;5292778;28;20391;-76
2022/03/13 08:52:28;;;;;;;9.02;5.20;;;5.50;74.80;;;;;;5291393;28;20034;-77
2022/03/13 08:54:59;;;;;;;9.90;6.38;;;6.00;73.70;;;;;;5293151;28;20023;-77
2022/03/13 08:57:30;;;;;;;11.68;6.28;;;6.10;77.20;;;;;;5291676;28;20122;-76
2022/03/13 09:00:01;;;;;;;11.40;5.50;;;6.60;74.70;;;;;;5291580;28;20189;-77
2022/03/13 09:02:32;;;;;;;9.85;6.07;;;6.40;73.90;;;;;;5291685;28;20020;-76
2022/03/13 09:05:03;;;;;;;8.13;5.20;;;6.30;77.20;;;;;;5292609;28;20039;-77
2022/03/13 09:07:34;;;;;;;8.95;5.43;;;6.20;70.60;;;;;;5291571;28;20024;-76
2022/03/13 09:10:09;;;;;;;8.52;4.93;;;6.00;69.50;;;;;;5292506;27;20383;-76
2022/03/13 09:12:40;;;;;;;8.82;5.55;;;6.00;67.00;;;;;;5292686;28;20069;-76
2022/03/13 09:15:11;;;;;;;9.32;4.78;;;6.10;65.70;;;;;;5292718;27;20429;-77
2022/03/13 09:17:42;;;;;;;9.18;5.22;;;6.70;65.80;;;;;;5290766;28;20031;-76
2022/03/13 09:20:13;;;;;;;9.45;4.90;;;6.70;65.10;;;;;;5292416;28;20043;-77
2022/03/13 10:07:56;;;;;;;11.60;4.32;;;8.20;58.80;;;;;;5308193;27;20458;-74
2022/03/13 10:10:42;;;;;;;6.95;4.10;;;7.90;57.50;;;;;;5308350;28;20033;-74
2022/03/13 10:13:32;;;;;;;6.85;3.78;;;7.80;58.10;;;;;;5308207;28;20080;-74
2022/03/13 10:16:04;;;;;;;6.57;3.55;;;7.80;55.50;;;;;;5308238;28;20108;-75
2022/03/13 10:18:35;;;;;;;5.95;3.40;;;8.00;56.50;;;;;;5308057;28;20031;-75
2022/03/13 10:21:17;;;;;;;6.82;3.00;;;8.50;53.50;;;;;;5308065;28;20031;-73
2022/03/13 10:23:48;;;;;;;7.70;4.65;;;7.80;51.20;;;;;;5308079;28;20031;-74
2022/03/13 10:26:29;;;;;;;6.68;4.28;;;7.70;56.60;;;;;;5307922;28;20024;-73
2022/03/13 10:29:00;;;;;;;5.07;3.60;;;8.10;53.70;;;;;;5307917;28;20069;-73
2022/03/13 10:31:31;;;;;;;6.10;4.03;;;8.50;54.60;;;;;;5307951;28;20043;-73
2022/03/13 10:34:02;;;;;;;3.97;2.90;;;8.20;53.60;;;;;;5307794;28;20525;-73
2022/03/13 10:36:34;;;;;;;5.93;3.28;;;9.00;53.30;;;;;;5307291;28;20157;-73
2022/03/13 10:39:17;;;;;;;7.88;3.47;;;8.50;52.00;;;;;;5307758;27;20028;-73
2022/03/13 10:41:55;;;;;;;7.28;4.28;;;8.70;54.00;;;;;;5307608;27;20019;-73
2022/03/13 10:44:27;;;;;;;6.88;3.97;;;8.00;54.00;;;;;;5307690;28;20024;-73
2022/03/13 10:47:03;;;;;;;6.93;3.67;;;8.80;55.90;;;;;;5307366;27;20043;-72
2022/03/13 10:49:44;;;;;;;6.63;3.78;;;9.00;54.10;;;;;;5307550;27;20378;-73
2022/03/13 10:52:43;;;;;;;7.22;3.70;;;8.60;53.10;;;;;;5307471;27;20027;-75
2022/03/13 10:55:24;;;;;;;6.07;3.50;;;7.90;54.80;;;;;;5307317;27;20363;-73
2022/03/13 10:57:57;;;;;;;6.45;3.42;;;8.10;53.80;;;;;;5307030;27;20020;-72
2022/03/13 11:00:28;;;;;;;5.07;3.53;;;8.60;53.80;;;;;;5307179;27;20083;-88
2022/03/13 11:03:10;;;;;;;5.40;3.13;;;8.70;52.00;;;;;;5307202;27;20028;-73
2022/03/13 11:05:41;;;;;;;6.72;4.18;;;9.00;51.60;;;;;;5306882;28;20138;-78
2022/03/13 11:08:12;;;;;;;6.38;3.22;;;9.60;52.60;;;;;;5295539;28;20592;-74
2022/03/13 11:10:43;;;;;;;6.05;3.03;;;8.40;51.20;;;;;;5292952;27;20098;-74
2022/03/13 11:13:15;;;;;;;6.53;4.25;;;8.80;51.40;;;;;;5292762;28;20030;-73
2022/03/13 11:15:48;;;;;;;5.72;3.55;;;9.80;52.70;;;;;;5292705;27;20039;-74
2022/03/13 11:18:22;;;;;;;7.57;3.90;;;9.00;52.70;;;;;;5292581;28;20023;-73
2022/03/13 11:20:53;;;;;;;6.03;3.28;;;9.00;52.20;;;;;;5292739;28;20106;-75
2022/03/13 11:23:24;;;;;;;7.13;3.45;;;8.80;53.00;;;;;;5292636;27;20107;-75
2022/03/13 11:25:55;;;;;;;6.10;2.90;;;9.40;50.60;;;;;;5292690;28;20103;-73
2022/03/13 11:28:28;;;;;;;6.00;3.08;;;8.70;48.00;;;;;;5292565;28;20471;-74
2022/03/13 11:30:59;;;;;;;5.50;3.47;;;10.20;50.80;;;;;;5292590;28;20129;-86
2022/03/13 11:33:34;;;;;;;7.28;4.47;;;10.60;48.80;;;;;;5292544;28;20490;-74
2022/03/13 11:36:29;;;;;;;5.10;3.47;;;9.60;50.70;;;;;;5292098;28;20047;-74
2022/03/13 11:39:04;;;;;;;5.07;3.35;;;9.20;51.70;;;;;;5289134;28;20043;-74
2022/03/13 11:41:38;;;;;;;5.65;3.30;;;9.80;47.30;;;;;;5292392;28;20024;-74
2022/03/13 11:44:23;;;;;;;6.55;4.50;;;9.60;44.30;;;;;;5292270;28;20055;-74
2022/03/13 11:46:59;;;;;;;7.25;3.88;;;9.90;50.30;;;;;;5290805;28;20463;-74
2022/03/13 11:49:30;;;;;;;5.25;3.45;;;9.70;50.70;;;;;;5292324;28;20020;-73
2022/03/13 11:52:09;;;;;;;7.70;4.55;;;9.90;49.70;;;;;;5292167;28;20030;-74
2022/03/13 11:57:22;;;;;;;5.55;3.47;;;8.30;46.50;;;;;;5291847;28;20498;-73
2022/03/13 12:00:11;;;;;;;6.93;3.97;;;9.00;50.80;;;;;;5290759;28;20020;-74
2022/03/13 12:02:41;;;;;;;5.70;3.28;;;9.80;52.70;;;;;;5292125;27;20098;-74
2022/03/13 12:05:25;;;;;;;7.30;3.50;;;9.70;51.30;;;;;;5290196;28;20177;-74
2022/03/13 12:08:08;;;;;;;5.22;3.10;;;9.50;51.80;;;;;;5291844;28;20028;-74
2022/03/13 12:10:41;;;;;;;5.68;3.53;;;9.00;49.40;;;;;;5290522;28;20035;-74
2022/03/13 12:13:15;;;;;;;8.35;4.05;;;10.30;48.40;;;;;;5291642;28;20013;-74
2022/03/13 12:15:46;;;;;;;5.80;3.13;;;9.60;48.50;;;;;;5291677;28;20118;-74
2022/03/13 12:18:32;;;;;;;5.60;3.53;;;9.20;51.50;;;;;;5290965;28;20024;-74
2022/03/13 12:21:11;;;;;;;5.13;3.08;;;9.60;49.30;;;;;;5291402;28;20088;-73
2022/03/13 12:23:43;;;;;;;5.55;3.33;;;8.60;50.20;;;;;;5291463;28;20471;-74
2022/03/13 12:26:32;;;;;;;7.75;4.22;;;9.40;50.50;;;;;;5291397;28;20031;-74
2022/03/13 12:29:03;;;;;;;5.47;3.70;;;9.10;50.00;;;;;;5291393;28;20070;-75
2022/03/13 12:31:48;;;;;;;7.97;3.60;;;8.80;49.30;;;;;;5291355;28;20051;-74
2022/03/13 12:34:27;;;;;;;7.22;3.55;;;8.70;48.50;;;;;;5291265;28;20023;-74
2022/03/13 12:37:02;;;;;;;9.60;5.70;;;8.70;50.30;;;;;;5290613;28;20043;-75
2022/03/13 12:39:32;;;;;;;8.30;4.97;;;10.00;51.80;;;;;;5291074;28;20027;-79
2022/03/13 12:42:04;;;;;;;6.88;3.88;;;9.60;50.30;;;;;;5291169;28;20031;-74
2022/03/13 12:44:37;;;;;;;5.43;3.47;;;9.70;52.20;;;;;;5289854;28;20374;-74
2022/03/13 12:47:08;;;;;;;6.13;3.55;;;9.70;50.40;;;;;;5290894;28;20043;-75
2022/03/13 12:49:39;;;;;;;6.93;4.55;;;7.60;49.30;;;;;;5290996;28;20542;-74
2022/03/13 12:52:13;;;;;;;7.07;3.63;;;9.20;54.20;;;;;;5290877;28;20076;-74
2022/03/13 12:54:44;;;;;;;5.95;3.58;;;7.90;50.00;;;;;;5290849;28;20455;-73
2022/03/13 12:57:19;;;;;;;5.97;3.75;;;7.70;51.60;;;;;;5290521;28;20038;-73
2022/03/13 12:59:51;;;;;;;6.45;3.65;;;8.10;53.80;;;;;;5290666;28;20016;-73
2022/03/13 13:02:31;;;;;;;6.05;3.90;;;6.60;51.80;;;;;;5290629;28;20427;-73
2022/03/13 13:05:04;;;;;;;10.27;6.35;;;7.90;54.90;;;;;;5290473;28;20364;-73
2022/03/13 13:07:37;;;;;;;9.23;4.68;;;7.20;59.40;;;;;;5290500;28;20529;-73
2022/03/13 13:10:11;;;;;;;7.07;3.83;;;6.50;57.50;;;;;;5290492;28;20073;-73
2022/03/13 13:12:42;;;;;;;6.68;3.90;;;7.20;56.30;;;;;;5290521;28;20050;-74
2022/03/13 13:15:16;;;;;;;7.90;3.67;;;8.40;56.20;;;;;;5290327;28;20096;-74
2022/03/13 13:17:48;;;;;;;8.25;4.50;;;8.90;52.10;;;;;;5290209;28;20024;-74
2022/03/13 13:20:22;;;;;;;9.60;4.43;;;8.90;52.40;;;;;;5290359;28;20046;-74
2022/03/13 13:23:07;;;;;;;8.27;4.90;;;9.20;52.40;;;;;;5290346;28;20466;-74
2022/03/13 13:25:38;;;;;;;8.48;3.70;;;9.70;52.10;;;;;;5290282;28;20035;-74
2022/03/13 13:28:11;;;;;;;6.07;3.83;;;9.00;51.40;;;;;;5288958;28;20019;-74
2022/03/13 13:30:42;;;;;;;7.60;3.95;;;7.30;51.00;;;;;;5290006;28;20045;-77
2022/03/13 13:33:15;;;;;;;6.53;4.28;;;6.90;54.70;;;;;;5290224;28;20024;-77
2022/03/13 13:35:54;;;;;;;6.97;4.07;;;7.60;56.40;;;;;;5289890;28;20031;-74
2022/03/13 13:38:34;;;;;;;14.38;8.30;;;7.10;56.30;;;;;;5290116;28;20056;-75
2022/03/13 13:41:06;;;;;;;9.02;5.18;;;6.80;59.00;;;;;;5290262;28;20433;-74
2022/03/13 13:43:39;;;;;;;15.05;8.73;;;7.20;60.50;;;;;;5290089;28;20024;-74
2022/03/13 13:46:18;;;;;;;11.57;7.30;;;7.90;59.20;;;;;;5289978;28;20012;-75
2022/03/13 13:48:50;;;;;;;7.80;4.45;;;8.10;59.00;;;;;;5289956;28;20027;-74
2022/03/13 13:51:35;;;;;;;7.95;4.25;;;7.20;55.30;;;;;;5289928;28;20028;-74
2022/03/13 13:54:17;;;;;;;6.75;4.10;;;7.20;53.70;;;;;;5290234;28;20019;-76
2022/03/13 13:56:53;;;;;;;36.67;16.70;;;8.40;53.40;;;;;;5289808;28;20063;-79
2022/03/13 13:59:35;;;;;;;14.23;7.07;;;9.10;51.90;;;;;;5289974;28;20020;-76
2022/03/13 14:02:08;;;;;;;7.72;5.10;;;8.50;52.50;;;;;;5288593;28;20035;-74
2022/03/13 14:04:40;;;;;;;10.70;5.50;;;8.90;52.50;;;;;;5289873;28;20043;-74